Time;durP1;ratioP1;P1;durP2;ratioP2;P2;SDS_P1;SDS_P2;PMS_P1;PMS_P2;Temp;Humidity;BMP_temperature;BMP_pressure;BME280_temperature;BME280_humidity;BME280_pressure;Samples;Min_cycle;Max_cycle;Signal;HPM_P1;HPM_P2
2024/02/08 00:00:34;;;;;;;5.47;3.33;;;;;;;;;;4916804;29;20181;-88
2024/02/08 00:03:38;;;;;;;6.00;3.30;;;;;;;;;;4916627;29;20652;-87
2024/02/08 00:06:42;;;;;;;4.27;3.07;;;;;;;;;;4916379;29;20193;-88
2024/02/08 00:09:46;;;;;;;3.97;3.20;;;;;;;;;;4905411;29;20204;-88
2024/02/08 00:12:51;;;;;;;3.70;2.43;;;;;;;;;;4917196;29;20197;-87
2024/02/08 00:15:55;;;;;;;5.90;2.70;;;;;;;;;;4906194;29;20184;-88
2024/02/08 00:19:02;;;;;;;4.77;2.93;;;;;;;;;;4917115;29;20238;-88
2024/02/08 00:22:06;;;;;;;6.13;2.93;;;;;;;;;;4918349;29;20185;-87
2024/02/08 00:25:10;;;;;;;4.20;2.67;;;;;;;;;;4906145;29;20185;-87
2024/02/08 00:28:14;;;;;;;4.43;2.80;;;;;;;;;;4916976;29;20221;-88
2024/02/08 00:31:19;;;;;;;5.97;2.90;;;;;;;;;;4895688;29;20177;-88
2024/02/08 00:34:23;;;;;;;3.40;2.53;;;;;;;;;;4905870;29;20197;-87
2024/02/08 00:37:28;;;;;;;3.97;2.57;;;;;;;;;;4917278;29;20185;-87
2024/02/08 00:40:32;;;;;;;5.23;2.77;;;;;;;;;;4917926;29;20185;-88
2024/02/08 00:43:39;;;;;;;4.23;2.80;;;;;;;;;;4917081;29;20185;-88
2024/02/08 00:46:43;;;;;;;2.40;2.07;;;;;;;;;;4906140;29;20189;-88
2024/02/08 00:49:48;;;;;;;3.70;2.57;;;;;;;;;;4916756;29;20205;-87
2024/02/08 00:52:52;;;;;;;5.00;2.77;;;;;;;;;;4916902;29;20193;-86
2024/02/08 00:55:58;;;;;;;3.87;2.60;;;;;;;;;;4905365;29;20184;-87
2024/02/08 00:59:02;;;;;;;5.60;3.07;;;;;;;;;;4916882;29;20590;-88
2024/02/08 01:02:07;;;;;;;5.53;2.70;;;;;;;;;;4918086;29;20196;-87
2024/02/08 01:05:11;;;;;;;3.50;2.50;;;;;;;;;;4917284;29;20189;-85
2024/02/08 01:08:15;;;;;;;4.47;2.17;;;;;;;;;;4917407;29;20693;-84
2024/02/08 01:11:19;;;;;;;4.90;2.47;;;;;;;;;;4917586;29;20214;-85
2024/02/08 01:14:23;;;;;;;4.87;2.47;;;;;;;;;;4905682;29;20236;-85
2024/02/08 01:17:27;;;;;;;3.30;2.03;;;;;;;;;;4917955;29;20189;-84
2024/02/08 01:20:32;;;;;;;3.10;2.23;;;;;;;;;;4916882;29;20200;-84
2024/02/08 01:23:38;;;;;;;4.10;2.17;;;;;;;;;;4920108;29;20189;-84
2024/02/08 01:26:42;;;;;;;2.80;2.13;;;;;;;;;;4897938;29;20189;-84
2024/02/08 01:29:47;;;;;;;4.00;2.30;;;;;;;;;;4920174;29;20565;-84
2024/02/08 01:32:53;;;;;;;2.90;2.20;;;;;;;;;;4930989;29;20189;-84
2024/02/08 01:35:57;;;;;;;4.90;2.23;;;;;;;;;;4919396;29;20193;-84
2024/02/08 01:39:05;;;;;;;2.70;2.00;;;;;;;;;;4919609;29;20224;-84
2024/02/08 01:42:16;;;;;;;3.37;2.00;;;;;;;;;;4908629;29;20215;-85
2024/02/08 01:45:34;;;;;;;3.13;1.90;;;;;;;;;;4919301;29;20185;-84
2024/02/08 01:48:44;;;;;;;3.33;1.90;;;;;;;;;;4919951;29;20225;-84
2024/02/08 01:51:52;;;;;;;2.10;1.90;;;;;;;;;;4919943;29;20634;-85
2024/02/08 01:54:56;;;;;;;2.10;1.90;;;;;;;;;;4920502;29;20185;-85
2024/02/08 01:58:07;;;;;;;3.73;1.90;;;;;;;;;;4919861;29;20229;-85
2024/02/08 02:01:11;;;;;;;1.63;1.53;;;;;;;;;;4919287;29;20578;-84
2024/02/08 02:04:15;;;;;;;2.37;1.80;;;;;;;;;;4919673;29;20189;-85
2024/02/08 02:07:19;;;;;;;3.33;1.70;;;;;;;;;;4920129;29;20180;-84
2024/02/08 02:10:30;;;;;;;2.23;1.60;;;;;;;;;;4919682;29;20217;-84
2024/02/08 02:13:37;;;;;;;2.10;1.63;;;;;;;;;;4908226;29;20190;-85
2024/02/08 02:16:42;;;;;;;2.80;1.30;;;;;;;;;;4919165;29;20189;-85
2024/02/08 02:19:47;;;;;;;2.90;1.97;;;;;;;;;;4908294;29;20204;-85
2024/02/08 02:22:51;;;;;;;2.07;1.60;;;;;;;;;;4918940;29;20186;-85
2024/02/08 02:25:56;;;;;;;1.53;1.30;;;;;;;;;;4919634;29;20189;-84
2024/02/08 02:29:03;;;;;;;3.13;1.40;;;;;;;;;;4918673;29;20225;-85
2024/02/08 02:32:11;;;;;;;1.70;1.60;;;;;;;;;;4907765;29;20169;-85
2024/02/08 02:35:17;;;;;;;1.83;1.30;;;;;;;;;;4917440;29;20284;-84
2024/02/08 02:38:24;;;;;;;1.80;1.37;;;;;;;;;;4918519;29;20705;-84
2024/02/08 02:41:28;;;;;;;1.77;1.00;;;;;;;;;;4918964;29;20182;-85
2024/02/08 02:44:32;;;;;;;1.47;1.30;;;;;;;;;;4929775;29;20189;-84
2024/02/08 02:47:36;;;;;;;1.67;1.30;;;;;;;;;;4918771;29;20228;-84
2024/02/08 02:50:41;;;;;;;1.80;1.13;;;;;;;;;;4907434;29;20212;-84
2024/02/08 02:53:46;;;;;;;1.30;1.20;;;;;;;;;;4918798;29;20193;-85
2024/02/08 02:56:50;;;;;;;1.63;1.33;;;;;;;;;;4907380;29;20189;-85
2024/02/08 02:59:59;;;;;;;1.40;1.20;;;;;;;;;;4918069;29;20185;-84
2024/02/08 03:03:08;;;;;;;2.23;1.20;;;;;;;;;;4918049;29;20639;-84
2024/02/08 03:06:15;;;;;;;1.30;1.10;;;;;;;;;;4917472;29;20642;-84
2024/02/08 03:09:23;;;;;;;4.03;1.30;;;;;;;;;;4906764;29;20224;-84
2024/02/08 03:12:27;;;;;;;1.60;1.17;;;;;;;;;;4918891;29;20177;-85
2024/02/08 03:15:32;;;;;;;1.63;1.30;;;;;;;;;;4918446;29;20638;-84
2024/02/08 03:18:38;;;;;;;3.53;1.50;;;;;;;;;;4918224;29;20224;-84
2024/02/08 03:21:45;;;;;;;3.10;1.20;;;;;;;;;;4918454;29;20177;-85
2024/02/08 03:24:49;;;;;;;1.93;1.30;;;;;;;;;;4917467;29;20193;-84
2024/02/08 03:27:53;;;;;;;1.40;1.30;;;;;;;;;;4917224;29;20220;-84
2024/02/08 03:30:57;;;;;;;1.50;0.80;;;;;;;;;;4916637;29;20204;-84
2024/02/08 03:34:01;;;;;;;1.40;1.17;;;;;;;;;;4905858;29;20189;-84
2024/02/08 03:37:06;;;;;;;1.70;1.10;;;;;;;;;;4905974;29;20185;-84
2024/02/08 03:40:10;;;;;;;1.63;1.03;;;;;;;;;;4916704;29;20185;-84
2024/02/08 03:43:15;;;;;;;2.80;1.20;;;;;;;;;;4917831;29;20189;-84
2024/02/08 03:46:20;;;;;;;3.00;1.30;;;;;;;;;;4906398;29;20642;-85
2024/02/08 03:49:24;;;;;;;2.33;1.20;;;;;;;;;;4916597;29;20225;-85
2024/02/08 03:52:30;;;;;;;2.33;1.10;;;;;;;;;;4905537;29;20546;-85
2024/02/08 03:55:35;;;;;;;2.13;1.73;;;;;;;;;;4905742;29;20197;-84
2024/02/08 03:58:39;;;;;;;3.43;1.40;;;;;;;;;;4905920;29;20217;-85
2024/02/08 04:01:46;;;;;;;1.77;1.37;;;;;;;;;;4905626;29;20575;-84
2024/02/08 04:04:53;;;;;;;1.13;1.00;;;;;;;;;;4916454;29;20181;-85
2024/02/08 04:07:59;;;;;;;1.50;1.33;;;;;;;;;;4917213;29;20224;-84
2024/02/08 04:54:42;;;;;;;1.93;1.20;;;;;;;;;;4926387;29;20189;-85
2024/02/08 04:57:47;;;;;;;1.80;1.23;;;;;;;;;;4914631;29;20559;-85
2024/02/08 05:00:51;;;;;;;3.03;1.27;;;;;;;;;;4926299;29;20180;-85
2024/02/08 05:03:57;;;;;;;1.07;0.97;;;;;;;;;;4904950;29;20205;-84
2024/02/08 05:07:06;;;;;;;1.50;1.10;;;;;;;;;;4915051;29;20189;-85
2024/02/08 05:10:10;;;;;;;1.10;1.00;;;;;;;;;;4915006;29;20181;-85
2024/02/08 05:13:14;;;;;;;1.30;0.97;;;;;;;;;;4904523;29;20181;-85
2024/02/08 05:16:19;;;;;;;1.60;1.30;;;;;;;;;;4915364;29;20185;-85
2024/02/08 05:19:23;;;;;;;2.63;1.20;;;;;;;;;;4914992;29;20228;-84
2024/02/08 05:22:27;;;;;;;1.87;1.03;;;;;;;;;;4914945;29;20181;-84
2024/02/08 05:25:35;;;;;;;1.77;1.10;;;;;;;;;;4914801;29;20181;-85
2024/02/08 05:28:43;;;;;;;0.87;0.83;;;;;;;;;;4914772;29;20567;-84
2024/02/08 05:31:49;;;;;;;5.30;1.20;;;;;;;;;;4914288;29;20208;-84
2024/02/08 05:34:53;;;;;;;1.40;0.90;;;;;;;;;;4914338;29;20185;-85
2024/02/08 05:37:57;;;;;;;3.93;1.20;;;;;;;;;;4914427;29;20589;-85
2024/02/08 05:41:02;;;;;;;1.20;1.07;;;;;;;;;;4915384;29;20185;-85
2024/02/08 05:44:06;;;;;;;1.10;1.00;;;;;;;;;;4903758;29;20184;-85
2024/02/08 05:47:10;;;;;;;0.97;0.90;;;;;;;;;;4914828;29;20194;-85
2024/02/08 05:50:21;;;;;;;1.13;1.00;;;;;;;;;;4903421;29;20188;-84
2024/02/08 05:53:29;;;;;;;1.10;1.00;;;;;;;;;;4925634;29;20512;-84
2024/02/08 05:56:39;;;;;;;1.83;1.20;;;;;;;;;;4914667;29;20193;-85
2024/02/08 05:59:44;;;;;;;2.83;1.10;;;;;;;;;;4903974;29;20185;-84
2024/02/08 06:02:49;;;;;;;2.70;1.10;;;;;;;;;;4914424;29;20177;-85
2024/02/08 06:06:15;;;;;;;2.50;0.90;;;;;;;;;;4903662;29;20635;-83
2024/02/08 06:12:51;;;;;;;1.13;0.83;;;;;;;;;;4928181;29;20729;-84
2024/02/08 06:16:00;;;;;;;1.80;1.07;;;;;;;;;;4918060;29;20562;-84
2024/02/08 06:19:04;;;;;;;2.13;0.90;;;;;;;;;;4917284;29;20233;-84
2024/02/08 06:22:20;;;;;;;1.47;1.00;;;;;;;;;;4917437;29;20181;-84
2024/02/08 06:25:27;;;;;;;1.70;1.17;;;;;;;;;;4917745;29;20181;-84
2024/02/08 06:28:33;;;;;;;1.20;1.10;;;;;;;;;;4918298;29;20221;-85
2024/02/08 06:31:50;;;;;;;1.33;1.07;;;;;;;;;;4918057;29;20209;-84
2024/02/08 06:35:25;;;;;;;1.10;1.00;;;;;;;;;;4917129;29;20189;-84
2024/02/08 06:38:40;;;;;;;1.03;0.90;;;;;;;;;;4907147;29;20706;-85
2024/02/08 06:42:07;;;;;;;1.50;1.13;;;;;;;;;;4917968;29;20174;-86
2024/02/08 07:37:14;;;;;;;1.33;1.03;;;;;;;;;;4917395;29;20586;-84
2024/02/08 07:43:34;;;;;;;2.47;1.30;;;;;;;;;;4919357;29;20173;-84
2024/02/08 07:46:42;;;;;;;3.57;1.43;;;;;;;;;;4907131;29;20181;-85
2024/02/08 07:49:49;;;;;;;14.53;9.87;;;;;;;;;;4919356;29;20189;-86
2024/02/08 07:52:58;;;;;;;2.17;1.90;;;;;;;;;;4918891;29;20204;-86
2024/02/08 07:59:26;;;;;;;2.27;2.07;;;;;;;;;;4918630;29;20228;-84
2024/02/08 08:02:30;;;;;;;1.73;1.63;;;;;;;;;;4907773;29;20181;-85
2024/02/08 08:05:42;;;;;;;2.03;1.53;;;;;;;;;;4907120;29;20188;-85
2024/02/08 08:08:57;;;;;;;1.30;1.20;;;;;;;;;;4918302;29;20221;-85
2024/02/08 08:12:04;;;;;;;1.17;1.00;;;;;;;;;;4953044;28;20674;-85
2024/02/08 08:18:23;;;;;;;1.40;1.23;;;;;;;;;;4907580;29;20216;-86
2024/02/08 08:21:55;;;;;;;2.10;1.20;;;;;;;;;;4908687;29;20178;-85
2024/02/08 08:28:30;;;;;;;2.17;1.07;;;;;;;;;;4909925;29;20216;-85
2024/02/08 08:31:46;;;;;;;1.70;0.97;;;;;;;;;;4927936;29;20209;-85
2024/02/08 08:41:24;;;;;;;3.70;1.40;;;;;;;;;;4928954;29;20181;-84
2024/02/08 08:44:30;;;;;;;1.40;1.30;;;;;;;;;;4918000;29;20188;-84
2024/02/08 08:47:36;;;;;;;1.43;1.20;;;;;;;;;;4906861;29;20221;-84
2024/02/08 08:50:49;;;;;;;5.13;1.77;;;;;;;;;;4917941;29;20181;-84
2024/02/08 08:54:00;;;;;;;1.50;1.20;;;;;;;;;;4919800;29;20177;-84
2024/02/08 08:57:12;;;;;;;1.10;1.00;;;;;;;;;;4917526;29;20181;-85
2024/02/08 09:00:31;;;;;;;1.67;1.50;;;;;;;;;;4917825;29;20189;-85
2024/02/08 09:03:38;;;;;;;2.07;1.83;;;;;;;;;;4918756;29;20531;-84
2024/02/08 09:06:47;;;;;;;2.37;2.17;;;;;;;;;;4917720;29;20634;-84
2024/02/08 09:09:54;;;;;;;3.93;1.73;;;;;;;;;;4917826;29;20181;-84
2024/02/08 09:13:07;;;;;;;20.60;11.40;;;;;;;;;;4916943;29;20209;-85
2024/02/08 09:16:29;;;;;;;3.33;2.90;;;;;;;;;;4918820;29;20185;-85
2024/02/08 09:19:34;;;;;;;7.00;6.03;;;;;;;;;;4905814;29;20225;-85
2024/02/08 09:22:39;;;;;;;4.30;3.90;;;;;;;;;;4917906;29;20541;-85
2024/02/08 09:25:45;;;;;;;11.40;9.17;;;;;;;;;;4916393;29;20189;-85
2024/02/08 09:28:53;;;;;;;5.73;4.50;;;;;;;;;;4916827;29;20221;-84
2024/02/08 09:31:58;;;;;;;2.23;1.90;;;;;;;;;;4927221;29;20213;-85
2024/02/08 09:35:11;;;;;;;1.77;1.40;;;;;;;;;;4917852;29;20185;-84
2024/02/08 09:38:18;;;;;;;2.27;1.93;;;;;;;;;;4916039;29;20225;-84
2024/02/08 09:41:26;;;;;;;2.83;2.50;;;;;;;;;;4920221;29;20185;-84
2024/02/08 09:44:36;;;;;;;3.93;2.30;;;;;;;;;;4911690;29;20634;-83
2024/02/08 09:47:51;;;;;;;2.50;2.30;;;;;;;;;;4921812;29;20213;-84
2024/02/08 09:51:00;;;;;;;2.37;1.70;;;;;;;;;;4922021;29;20554;-83
2024/02/08 09:54:15;;;;;;;2.00;1.47;;;;;;;;;;4930167;29;20190;-84
2024/02/08 09:57:22;;;;;;;1.83;1.30;;;;;;;;;;4931144;29;20186;-84
2024/02/08 10:00:44;;;;;;;1.67;1.57;;;;;;;;;;4924838;29;20185;-83
2024/02/08 10:03:49;;;;;;;2.17;1.50;;;;;;;;;;4935113;29;20177;-84
2024/02/08 10:10:03;;;;;;;3.00;1.47;;;;;;;;;;4936253;29;20185;-84
2024/02/08 10:13:25;;;;;;;1.80;1.33;;;;;;;;;;4926577;29;20217;-84
2024/02/08 10:16:30;;;;;;;11.10;8.67;;;;;;;;;;4915737;29;20631;-84
2024/02/08 10:19:47;;;;;;;2.33;2.13;;;;;;;;;;4916259;29;20221;-84
2024/02/08 10:22:57;;;;;;;2.30;1.80;;;;;;;;;;4926706;29;20181;-84
2024/02/08 10:26:20;;;;;;;3.13;2.47;;;;;;;;;;4932028;29;20181;-85
2024/02/08 10:29:25;;;;;;;1.70;1.23;;;;;;;;;;4915240;29;20229;-85
2024/02/08 10:32:29;;;;;;;0.80;0.80;;;;;;;;;;4915549;29;20216;-84
2024/02/08 10:35:39;;;;;;;1.63;0.77;;;;;;;;;;4926883;29;20180;-86
2024/02/08 10:38:56;;;;;;;1.00;0.70;;;;;;;;;;4931038;29;20221;-86
2024/02/08 10:42:01;;;;;;;1.03;0.90;;;;;;;;;;4928270;29;20182;-85
2024/02/08 10:45:06;;;;;;;1.17;0.63;;;;;;;;;;4929231;29;20181;-85
2024/02/08 10:48:14;;;;;;;1.00;0.67;;;;;;;;;;4930219;29;20229;-85
2024/02/08 10:51:25;;;;;;;0.60;0.50;;;;;;;;;;4928850;29;20177;-85
2024/02/08 10:54:42;;;;;;;0.60;0.47;;;;;;;;;;4927066;29;20185;-85
2024/02/08 10:58:21;;;;;;;2.10;0.50;;;;;;;;;;4912677;29;20221;-85
2024/02/08 11:01:33;;;;;;;2.17;1.40;;;;;;;;;;4901597;29;20178;-86
2024/02/08 11:04:41;;;;;;;5.73;3.50;;;;;;;;;;4923681;29;20532;-86
2024/02/08 11:07:46;;;;;;;2.17;1.73;;;;;;;;;;4926631;29;20225;-86
2024/02/08 11:10:58;;;;;;;1.13;1.03;;;;;;;;;;4924210;29;20189;-86
2024/02/08 11:14:08;;;;;;;1.13;0.70;;;;;;;;;;4924441;29;20204;-86
2024/02/08 11:17:20;;;;;;;1.83;1.27;;;;;;;;;;4925072;29;20189;-86
2024/02/08 11:20:44;;;;;;;1.10;1.00;;;;;;;;;;4925708;29;20547;-86
2024/02/08 11:23:53;;;;;;;1.53;1.20;;;;;;;;;;4924294;29;20173;-86
2024/02/08 11:27:01;;;;;;;0.67;0.47;;;;;;;;;;4922315;29;20193;-86
2024/02/08 11:30:11;;;;;;;0.77;0.60;;;;;;;;;;4898377;29;20536;-86
2024/02/08 11:33:20;;;;;;;1.50;0.40;;;;;;;;;;4919920;29;20213;-86
2024/02/08 11:36:34;;;;;;;0.73;0.60;;;;;;;;;;4919709;29;20189;-85
2024/02/08 11:39:40;;;;;;;3.10;0.57;;;;;;;;;;4920301;29;20208;-86
2024/02/08 11:42:44;;;;;;;0.60;0.50;;;;;;;;;;4908735;29;20181;-86
2024/02/08 11:45:52;;;;;;;0.50;0.47;;;;;;;;;;4919548;29;20185;-86
2024/02/08 11:49:10;;;;;;;0.50;0.40;;;;;;;;;;4919645;29;20390;-86
2024/02/08 11:52:19;;;;;;;0.50;0.40;;;;;;;;;;4919358;29;20516;-86
2024/02/08 11:55:23;;;;;;;1.13;0.40;;;;;;;;;;4919296;29;20185;-86
2024/02/08 11:58:32;;;;;;;1.03;0.50;;;;;;;;;;4922413;29;20705;-86
2024/02/08 12:01:37;;;;;;;0.30;0.30;;;;;;;;;;4921774;29;20532;-86
2024/02/08 12:04:42;;;;;;;0.60;0.47;;;;;;;;;;4923825;29;20185;-86
2024/02/08 12:07:47;;;;;;;1.73;0.47;;;;;;;;;;4923149;29;20220;-86
2024/02/08 12:10:51;;;;;;;0.50;0.50;;;;;;;;;;4919457;29;20185;-86
2024/02/08 12:14:16;;;;;;;1.77;0.40;;;;;;;;;;4918143;29;20216;-86
2024/02/08 12:17:22;;;;;;;1.00;0.50;;;;;;;;;;4907978;29;20185;-86
2024/02/08 12:20:25;;;;;;;1.70;1.20;;;;;;;;;;4921314;29;20217;-86
2024/02/08 12:23:35;;;;;;;4.57;4.00;;;;;;;;;;4921148;29;20185;-84
2024/02/08 12:26:39;;;;;;;2.87;1.20;;;;;;;;;;4921824;29;20180;-86
2024/02/08 12:29:50;;;;;;;3.53;2.90;;;;;;;;;;4921653;29;20176;-85
2024/02/08 12:32:57;;;;;;;1.87;1.37;;;;;;;;;;4918856;29;20212;-85
2024/02/08 12:36:02;;;;;;;5.63;4.27;;;;;;;;;;4918915;29;20185;-85
2024/02/08 12:39:17;;;;;;;4.07;2.77;;;;;;;;;;4919493;28;20252;-85
2024/02/08 12:42:23;;;;;;;1.07;0.97;;;;;;;;;;4918799;29;20181;-86
2024/02/08 12:45:32;;;;;;;0.80;0.80;;;;;;;;;;4919045;29;20555;-86
2024/02/08 12:48:36;;;;;;;0.80;0.60;;;;;;;;;;4907616;29;20221;-86
2024/02/08 12:51:41;;;;;;;1.40;0.60;;;;;;;;;;4919834;29;20185;-84
2024/02/08 12:54:54;;;;;;;1.10;1.00;;;;;;;;;;4920891;29;20558;-84
2024/02/08 12:58:03;;;;;;;2.20;1.00;;;;;;;;;;4919958;29;20212;-84
2024/02/08 13:01:07;;;;;;;2.53;0.97;;;;;;;;;;4919765;29;20185;-84
2024/02/08 13:04:17;;;;;;;1.07;0.80;;;;;;;;;;4919129;29;20181;-86
2024/02/08 13:07:25;;;;;;;1.93;1.43;;;;;;;;;;4916674;29;20181;-86
2024/02/08 13:10:31;;;;;;;0.70;0.70;;;;;;;;;;4916622;29;20188;-85
2024/02/08 13:13:35;;;;;;;1.70;1.40;;;;;;;;;;4916405;29;20217;-87
2024/02/08 13:16:40;;;;;;;1.20;1.10;;;;;;;;;;4906214;29;20185;-84
2024/02/08 13:19:55;;;;;;;0.60;0.60;;;;;;;;;;4919213;29;20209;-87
2024/02/08 13:22:59;;;;;;;0.73;0.70;;;;;;;;;;4920756;29;20182;-86
2024/02/08 13:26:06;;;;;;;1.37;0.87;;;;;;;;;;4909382;29;20185;-87
2024/02/08 13:29:11;;;;;;;0.43;0.43;;;;;;;;;;4919915;29;20216;-86
2024/02/08 13:32:16;;;;;;;1.67;0.57;;;;;;;;;;4908847;29;20185;-86
2024/02/08 13:35:25;;;;;;;2.40;1.87;;;;;;;;;;4918923;29;20178;-87
2024/02/08 13:38:30;;;;;;;5.60;3.97;;;;;;;;;;4919242;29;20216;-86
2024/02/08 13:41:34;;;;;;;1.70;1.60;;;;;;;;;;4919710;29;20189;-87
2024/02/08 13:44:39;;;;;;;6.63;4.13;;;;;;;;;;4919136;29;20185;-87
2024/02/08 13:47:51;;;;;;;4.10;2.20;;;;;;;;;;4919346;29;20594;-86
2024/02/08 13:50:55;;;;;;;6.33;1.20;;;;;;;;;;4919490;29;20185;-87
2024/02/08 13:54:00;;;;;;;1.77;1.50;;;;;;;;;;4918971;29;20216;-86
2024/02/08 13:57:14;;;;;;;1.33;1.20;;;;;;;;;;4907745;29;20185;-86
2024/02/08 14:00:21;;;;;;;1.93;1.73;;;;;;;;;;4908144;29;20181;-86
2024/02/08 14:03:29;;;;;;;1.93;1.60;;;;;;;;;;4908154;29;20189;-84
2024/02/08 14:06:32;;;;;;;3.10;1.03;;;;;;;;;;4920170;29;20181;-86
2024/02/08 14:09:40;;;;;;;1.53;1.30;;;;;;;;;;4919125;29;20216;-86
2024/02/08 14:12:45;;;;;;;2.17;1.07;;;;;;;;;;4919713;29;20190;-86
2024/02/08 14:15:54;;;;;;;2.10;0.90;;;;;;;;;;4918895;29;20646;-86
2024/02/08 14:18:59;;;;;;;1.53;1.00;;;;;;;;;;4908262;29;20232;-86
2024/02/08 14:22:06;;;;;;;1.83;1.40;;;;;;;;;;4920666;29;20623;-86
2024/02/08 14:25:23;;;;;;;1.97;1.67;;;;;;;;;;4919067;29;20627;-86
2024/02/08 14:28:28;;;;;;;2.00;1.47;;;;;;;;;;4919508;29;20217;-86
2024/02/08 14:31:35;;;;;;;2.53;1.50;;;;;;;;;;4918445;29;20189;-86
2024/02/08 14:34:40;;;;;;;1.40;0.97;;;;;;;;;;4918623;29;20217;-86
2024/02/08 14:37:46;;;;;;;1.70;1.30;;;;;;;;;;4919376;29;20221;-86
2024/02/08 14:40:53;;;;;;;1.87;1.20;;;;;;;;;;4920299;29;20533;-86
2024/02/08 14:44:05;;;;;;;4.37;1.00;;;;;;;;;;4908449;29;20185;-86
2024/02/08 14:47:21;;;;;;;1.97;0.90;;;;;;;;;;4919133;29;20177;-86
2024/02/08 14:53:48;;;;;;;3.17;1.97;;;;;;;;;;4920132;29;20217;-86
2024/02/08 14:57:04;;;;;;;3.30;1.50;;;;;;;;;;4919195;29;20185;-86
2024/02/08 15:03:36;;;;;;;7.60;3.27;;;;;;;;;;4908618;29;20177;-86
2024/02/08 15:06:42;;;;;;;5.00;2.83;;;;;;;;;;4918970;29;20535;-86
2024/02/08 15:12:56;;;;;;;4.33;1.00;;;;;;;;;;4930167;29;20189;-86
2024/02/08 15:16:07;;;;;;;6.03;1.10;;;;;;;;;;4918199;29;20182;-86
2024/02/08 15:19:11;;;;;;;3.47;1.40;;;;;;;;;;4919264;29;20216;-86
2024/02/08 15:25:34;;;;;;;5.27;2.90;;;;;;;;;;4918763;29;20177;-85
2024/02/08 15:28:42;;;;;;;22.07;13.23;;;;;;;;;;4918540;29;20228;-86
2024/02/08 15:31:46;;;;;;;21.67;16.43;;;;;;;;;;4907683;29;20200;-85
2024/02/08 15:41:28;;;;;;;7.13;3.70;;;;;;;;;;4918304;29;20181;-85
2024/02/08 15:44:36;;;;;;;4.57;1.70;;;;;;;;;;4918156;29;20185;-86
2024/02/08 15:48:05;;;;;;;8.83;1.80;;;;;;;;;;4918073;29;20229;-85
2024/02/08 15:51:09;;;;;;;7.27;1.73;;;;;;;;;;4917659;29;20189;-85
2024/02/08 15:54:21;;;;;;;4.73;1.40;;;;;;;;;;4918104;29;20212;-86
2024/02/08 15:57:32;;;;;;;3.90;1.50;;;;;;;;;;4918024;29;20176;-86
2024/02/08 16:04:00;;;;;;;7.00;2.20;;;;;;;;;;4929869;29;20173;-86
2024/02/08 16:07:16;;;;;;;7.00;2.30;;;;;;;;;;4908214;29;20185;-86
2024/02/08 16:10:24;;;;;;;6.70;2.50;;;;;;;;;;4928913;29;20185;-86
2024/02/08 16:13:34;;;;;;;13.43;2.00;;;;;;;;;;4918818;29;20185;-86
2024/02/08 16:16:41;;;;;;;8.97;1.80;;;;;;;;;;4919052;29;20184;-86
2024/02/08 16:19:51;;;;;;;5.77;1.63;;;;;;;;;;4917711;29;20571;-85
2024/02/08 16:22:55;;;;;;;6.33;1.80;;;;;;;;;;4929011;29;20519;-86
2024/02/08 16:26:05;;;;;;;4.87;1.63;;;;;;;;;;4906740;29;20554;-86
2024/02/08 16:29:16;;;;;;;10.80;3.00;;;;;;;;;;4917757;29;20221;-86
2024/02/08 16:32:29;;;;;;;13.03;3.90;;;;;;;;;;4918587;29;20185;-85
2024/02/08 16:35:41;;;;;;;6.73;2.57;;;;;;;;;;4917651;29;20217;-85
2024/02/08 16:38:56;;;;;;;9.77;2.10;;;;;;;;;;4906897;29;20220;-86
2024/02/08 16:42:01;;;;;;;8.70;3.73;;;;;;;;;;4917873;29;20185;-86
2024/02/08 16:45:17;;;;;;;12.13;4.33;;;;;;;;;;4917546;29;20185;-88
2024/02/08 16:48:33;;;;;;;13.23;4.27;;;;;;;;;;4906468;29;20220;-87
2024/02/08 16:51:45;;;;;;;12.43;2.63;;;;;;;;;;4917268;29;20177;-86
2024/02/08 16:54:59;;;;;;;15.73;2.40;;;;;;;;;;4916933;29;20220;-86
2024/02/08 16:58:17;;;;;;;10.63;2.20;;;;;;;;;;4895523;29;20217;-86
2024/02/08 17:01:32;;;;;;;7.43;2.07;;;;;;;;;;4927720;29;20189;-87
2024/02/08 17:04:47;;;;;;;11.33;2.70;;;;;;;;;;4906493;29;20177;-86
2024/02/08 17:07:52;;;;;;;10.40;2.47;;;;;;;;;;4916649;29;20701;-86
2024/02/08 17:10:56;;;;;;;11.30;3.20;;;;;;;;;;4906515;29;20185;-85
2024/02/08 17:14:03;;;;;;;10.23;2.40;;;;;;;;;;4917737;29;20527;-86
2024/02/08 17:17:13;;;;;;;11.60;2.40;;;;;;;;;;4917552;29;20181;-86
2024/02/08 17:20:37;;;;;;;8.13;2.63;;;;;;;;;;4916003;29;20205;-86
2024/02/08 17:23:42;;;;;;;13.73;2.77;;;;;;;;;;4917055;29;20185;-86
2024/02/08 17:26:59;;;;;;;17.67;3.30;;;;;;;;;;4916063;29;20185;-85
2024/02/08 17:30:16;;;;;;;11.93;3.70;;;;;;;;;;4963598;28;20531;-88
2024/02/08 17:33:21;;;;;;;10.90;2.60;;;;;;;;;;4950607;28;20181;-87
2024/02/08 17:36:30;;;;;;;8.67;2.70;;;;;;;;;;4904389;29;20181;-87
2024/02/08 17:39:40;;;;;;;13.67;2.33;;;;;;;;;;4916389;29;20216;-87
2024/02/08 17:42:58;;;;;;;12.40;3.50;;;;;;;;;;4905521;29;20523;-86
2024/02/08 17:46:04;;;;;;;9.57;2.27;;;;;;;;;;4915737;29;20620;-87
2024/02/08 17:49:15;;;;;;;14.73;3.20;;;;;;;;;;4915380;29;20224;-87
2024/02/08 17:52:23;;;;;;;17.53;2.77;;;;;;;;;;4916102;29;20181;-87
2024/02/08 17:55:35;;;;;;;9.87;2.93;;;;;;;;;;4916105;29;20221;-87
2024/02/08 17:58:40;;;;;;;9.23;2.57;;;;;;;;;;4915720;29;20225;-87
2024/02/08 18:01:54;;;;;;;14.80;3.53;;;;;;;;;;4915440;29;20185;-87
2024/02/08 18:05:00;;;;;;;28.50;14.43;;;;;;;;;;4917229;29;20182;-87
2024/02/08 18:08:06;;;;;;;13.00;3.60;;;;;;;;;;4907567;29;20606;-87
2024/02/08 18:11:12;;;;;;;13.93;3.07;;;;;;;;;;4918033;29;20181;-87
2024/02/08 18:14:17;;;;;;;11.67;2.43;;;;;;;;;;4907836;29;20189;-87
2024/02/08 18:17:24;;;;;;;10.50;3.13;;;;;;;;;;4907741;29;20185;-87
2024/02/08 18:20:33;;;;;;;13.60;3.83;;;;;;;;;;4918354;29;20213;-87
2024/02/08 18:23:38;;;;;;;12.97;3.60;;;;;;;;;;4917756;29;20185;-87
2024/02/08 18:26:44;;;;;;;11.77;4.40;;;;;;;;;;4918161;29;20185;-87
2024/02/08 18:29:50;;;;;;;13.17;3.77;;;;;;;;;;4907663;29;20188;-87
2024/02/08 18:32:57;;;;;;;12.07;3.23;;;;;;;;;;4919105;29;20193;-87
2024/02/08 18:36:04;;;;;;;10.83;2.90;;;;;;;;;;4907257;29;20217;-87
2024/02/08 18:39:25;;;;;;;13.53;2.63;;;;;;;;;;4918144;29;20220;-87
2024/02/08 18:42:32;;;;;;;13.93;3.07;;;;;;;;;;4917305;29;20189;-87
2024/02/08 18:45:36;;;;;;;17.33;3.53;;;;;;;;;;4918386;29;20181;-87
2024/02/08 18:48:44;;;;;;;15.90;3.33;;;;;;;;;;4919016;29;20225;-87
2024/02/08 18:51:48;;;;;;;14.60;2.90;;;;;;;;;;4917598;29;20185;-87
2024/02/08 18:54:53;;;;;;;11.93;2.97;;;;;;;;;;4917490;29;20209;-87
2024/02/08 18:58:00;;;;;;;14.93;2.90;;;;;;;;;;4906747;29;20224;-87
2024/02/08 19:01:07;;;;;;;15.67;3.37;;;;;;;;;;4917553;29;20193;-86
2024/02/08 19:04:15;;;;;;;16.67;3.27;;;;;;;;;;4895596;29;20181;-85
2024/02/08 19:07:21;;;;;;;13.10;3.03;;;;;;;;;;4919982;29;20177;-85
2024/02/08 19:10:27;;;;;;;11.60;3.43;;;;;;;;;;4918984;29;20180;-85
2024/02/08 19:13:32;;;;;;;9.90;2.83;;;;;;;;;;4908107;29;20185;-85
2024/02/08 19:16:39;;;;;;;13.63;3.03;;;;;;;;;;4918155;29;20213;-85
2024/02/08 19:19:45;;;;;;;14.57;2.90;;;;;;;;;;4918456;29;20212;-85
2024/02/08 19:22:50;;;;;;;10.17;3.37;;;;;;;;;;4918930;29;20524;-85
2024/02/08 19:25:57;;;;;;;8.93;2.57;;;;;;;;;;4907890;29;20185;-84
2024/02/08 19:29:05;;;;;;;12.00;2.80;;;;;;;;;;4907196;29;20221;-85
2024/02/08 19:32:18;;;;;;;12.80;3.50;;;;;;;;;;4907353;29;20189;-85
2024/02/08 19:35:24;;;;;;;12.47;2.70;;;;;;;;;;4918885;29;20209;-85
2024/02/08 19:38:29;;;;;;;16.00;2.70;;;;;;;;;;4906944;29;20224;-85
2024/02/08 19:41:33;;;;;;;13.17;2.30;;;;;;;;;;4917997;29;20193;-85
2024/02/08 19:44:42;;;;;;;11.03;2.60;;;;;;;;;;4917411;29;20189;-85
2024/02/08 19:47:48;;;;;;;13.93;2.70;;;;;;;;;;4916842;29;20225;-85
2024/02/08 19:50:52;;;;;;;11.83;3.30;;;;;;;;;;4917247;29;20638;-85
2024/02/08 19:54:01;;;;;;;13.83;2.70;;;;;;;;;;4906710;29;20185;-85
2024/02/08 19:57:06;;;;;;;12.57;2.93;;;;;;;;;;4916804;29;20181;-85
2024/02/08 20:00:17;;;;;;;11.90;2.70;;;;;;;;;;4918292;29;20185;-85
2024/02/08 20:03:26;;;;;;;13.20;2.77;;;;;;;;;;4917774;29;20185;-85
2024/02/08 20:06:30;;;;;;;12.07;2.60;;;;;;;;;;4917684;29;20189;-85
2024/02/08 20:09:42;;;;;;;14.33;2.63;;;;;;;;;;4917891;29;20220;-85
2024/02/08 20:12:46;;;;;;;8.50;2.50;;;;;;;;;;4918792;29;20185;-85
2024/02/08 20:15:53;;;;;;;10.43;2.73;;;;;;;;;;4906809;29;20216;-85
2024/02/08 20:18:59;;;;;;;15.30;3.23;;;;;;;;;;4916644;29;20236;-85
2024/02/08 20:22:03;;;;;;;7.60;2.47;;;;;;;;;;4923576;29;20524;-85
2024/02/08 20:25:11;;;;;;;14.97;2.97;;;;;;;;;;4917332;29;20181;-85
2024/02/08 20:28:16;;;;;;;11.70;2.27;;;;;;;;;;4906226;29;20225;-85
2024/02/08 20:31:21;;;;;;;12.27;2.50;;;;;;;;;;4917345;29;20527;-85
2024/02/08 20:34:26;;;;;;;9.20;2.40;;;;;;;;;;4916752;29;20189;-85
2024/02/08 20:37:32;;;;;;;10.47;2.67;;;;;;;;;;4916846;29;20189;-85
2024/02/08 20:40:36;;;;;;;10.03;2.57;;;;;;;;;;4918083;29;20189;-87
2024/02/08 20:43:48;;;;;;;11.33;2.50;;;;;;;;;;4917452;29;20219;-85
2024/02/08 20:46:56;;;;;;;15.10;2.40;;;;;;;;;;4916770;29;20181;-85
2024/02/08 20:50:00;;;;;;;16.37;2.77;;;;;;;;;;4916296;29;20189;-85
2024/02/08 20:53:08;;;;;;;9.60;2.10;;;;;;;;;;4929721;29;20185;-85
2024/02/08 20:56:22;;;;;;;9.67;2.67;;;;;;;;;;4916925;29;20213;-85
2024/02/08 20:59:27;;;;;;;14.50;2.30;;;;;;;;;;4916093;29;20221;-85
2024/02/08 21:02:34;;;;;;;9.27;2.50;;;;;;;;;;4917485;29;20182;-85
2024/02/08 21:05:41;;;;;;;13.13;2.50;;;;;;;;;;4917459;29;20185;-85
2024/02/08 21:08:46;;;;;;;11.27;2.27;;;;;;;;;;4917803;29;20220;-85